Shishmaref Airport Shishmaref US
ICAO: PASH
IATA:
Category: Medium
Scheduled Services:

Elevation: 12 ft
TransAlt. 18000 ft.

Airport Communications:
AWOS 3:121.1
ANCHORAGE CNTR:119.2
CTAF:123
NOME RDO:122.4
TWEB:36.5

PASH Zoom In..

Runways:

(A) RW 05 length 4997 ft width 73 ft
---- / hdg 49

(B) RW 23 length 4997 ft width 73 ft
---- / hdg 229

Location; PASH
Day. 26 / Time. 11.13 Zulu
* Altimeter: 30.19
* Temperature: -22° c. 7.6°f.
* Wind from: 330° Speed 05 kn.
Dewpoint: -23° c.
Visibility: 2 Statute Miles.
Clouds: Overcast 300 ft.
Conditions: Mist.

PASH 261113Z AUTO 33005KT 2SM BR OVC003 M22/M23 A3019 RMK AO2 FZRANO


Wind From 330°
Speed 05 kn.

 
 
jpsmedia worldairports.se 2020   terms of use